Time;durP1;ratioP1;P1;durP2;ratioP2;P2;SDS_P1;SDS_P2;PMS_P1;PMS_P2;Temp;Humidity;BMP_temperature;BMP_pressure;BME280_temperature;BME280_humidity;BME280_pressure;Samples;Min_cycle;Max_cycle;Signal;HPM_P1;HPM_P2
2022/01/10 00:00:21;;;;;;;;;36.00;30.00;;;;;10.01;62.98;100469.19;2069673;28;46268;-74
2022/01/10 00:01:28;;;;;;;;;31.60;30.60;;;;;10.02;62.90;100484.19;2078263;28;45532;-73
2022/01/10 00:02:29;;;;;;;;;29.20;25.80;;;;;10.02;62.84;100483.31;2094164;28;47734;-73
2022/01/10 00:03:29;;;;;;;;;22.00;22.00;;;;;10.02;62.89;100491.28;2094335;27;45461;-73
2022/01/10 00:04:30;;;;;;;;;33.75;33.00;;;;;10.01;62.67;100487.75;2086139;28;47893;-73
2022/01/10 00:05:31;;;;;;;;;28.25;26.00;;;;;10.02;62.73;100485.97;2086392;28;48281;-74
2022/01/10 00:06:31;;;;;;;;;34.25;31.75;;;;;10.01;62.86;100484.25;2094635;28;46483;-73
2022/01/10 00:07:32;;;;;;;;;33.00;30.25;;;;;10.01;62.91;100489.53;2086026;28;45822;-73
2022/01/10 00:08:33;;;;;;;;;35.50;30.25;;;;;10.01;62.76;100487.75;2078252;28;48143;-72
2022/01/10 00:09:34;;;;;;;;;28.80;26.80;;;;;10.01;62.77;100493.06;2086104;28;46326;-72
2022/01/10 00:10:35;;;;;;;;;29.75;29.75;;;;;10.02;62.76;100501.88;2086267;28;47085;-72
2022/01/10 00:11:36;;;;;;;;;27.40;25.40;;;;;10.01;62.80;100497.50;2086231;28;46283;-73
2022/01/10 00:12:38;;;;;;;;;27.25;26.00;;;;;10.01;62.75;100501.00;2083585;28;47056;-74
2022/01/10 00:13:39;;;;;;;;;29.00;28.40;;;;;10.01;62.62;100503.66;2092867;28;48199;-72
2022/01/10 00:14:39;;;;;;;;;24.25;22.75;;;;;10.01;62.75;100505.44;2095047;28;45492;-75
2022/01/10 00:15:40;;;;;;;;;33.75;28.75;;;;;10.01;62.75;100508.97;2094907;27;48328;-72
2022/01/10 00:16:41;;;;;;;;;29.25;28.75;;;;;10.00;62.63;100504.56;2095632;27;47212;-74
2022/01/10 00:17:43;;;;;;;;;24.75;24.00;;;;;10.01;62.76;100498.34;2092605;28;48133;-74
2022/01/10 00:18:43;;;;;;;;;32.40;28.80;;;;;10.02;62.73;100504.53;2086486;28;45846;-73
2022/01/10 00:19:44;;;;;;;;;21.00;20.75;;;;;10.01;62.67;100502.78;2077854;28;46905;-72
2022/01/10 00:20:44;;;;;;;;;23.25;23.00;;;;;10.01;62.68;100511.63;2077933;28;46454;-73
2022/01/10 00:21:45;;;;;;;;;26.00;25.25;;;;;10.01;62.73;100505.44;2077906;28;45413;-73
2022/01/10 00:22:49;;;;;;;;;30.75;28.50;;;;;10.00;62.47;100512.53;2085028;28;47696;-73
2022/01/10 00:23:50;;;;;;;;;27.00;26.60;;;;;10.02;62.60;100512.50;2086051;28;46663;-73
2022/01/10 00:24:50;;;;;;;;;25.50;24.25;;;;;10.01;62.52;100521.34;2086309;28;46765;-73
2022/01/10 00:25:51;;;;;;;;;30.50;29.50;;;;;10.00;62.61;100517.81;2077865;28;45612;-74
2022/01/10 00:26:51;;;;;;;;;28.25;28.25;;;;;10.00;62.69;100524.91;2077216;28;45514;-74
2022/01/10 00:27:53;;;;;;;;;25.25;24.50;;;;;10.00;62.64;100522.25;2085552;28;45655;-74
2022/01/10 00:28:53;;;;;;;;;30.40;27.40;;;;;9.99;63.05;100513.44;2085837;28;46164;-72
2022/01/10 00:29:54;;;;;;;;;30.25;28.00;;;;;10.01;62.91;100521.34;2086109;28;46310;-74
2022/01/10 00:30:55;;;;;;;;;32.00;28.75;;;;;10.00;62.85;100525.78;2086405;28;45539;-72
2022/01/10 00:31:59;;;;;;;;;24.25;24.25;;;;;10.00;62.49;100523.13;2078623;28;47793;-73
2022/01/10 00:33:00;;;;;;;;;26.80;26.80;;;;;10.01;62.62;100521.34;2086816;28;46237;-73
2022/01/10 00:34:01;;;;;;;;;31.50;27.50;;;;;10.02;62.99;100526.63;2095038;28;47524;-74
2022/01/10 00:35:02;;;;;;;;;27.80;26.20;;;;;10.01;62.55;100532.81;2086001;28;46336;-73
2022/01/10 00:36:03;;;;;;;;;35.00;31.40;;;;;10.02;62.61;100531.03;2077460;28;46124;-73
2022/01/10 00:37:04;;;;;;;;;29.60;28.20;;;;;10.04;62.88;100539.88;2086022;28;45589;-73
2022/01/10 00:38:05;;;;;;;;;30.75;30.75;;;;;10.05;62.58;100540.72;2085640;28;46118;-73
2022/01/10 00:39:05;;;;;;;;;31.25;27.50;;;;;10.05;62.74;100535.44;2086241;28;47954;-74
2022/01/10 00:40:06;;;;;;;;;25.50;25.50;;;;;10.05;62.68;100540.72;2086354;28;47912;-74
2022/01/10 00:41:07;;;;;;;;;30.80;29.40;;;;;10.06;62.56;100542.47;2094711;28;46129;-73
2022/01/10 00:42:08;;;;;;;;;35.50;31.75;;;;;10.03;62.72;100541.63;2095107;28;46217;-73
2022/01/10 00:43:17;;;;;;;;;28.50;28.50;;;;;10.04;62.77;100547.81;2094802;27;46166;-73
2022/01/10 00:44:24;;;;;;;;;27.00;27.00;;;;;10.02;62.93;100545.16;2085479;28;46021;-73
2022/01/10 00:45:27;;;;;;;;;34.20;32.00;;;;;10.04;62.72;100542.50;2085899;28;47482;-73
2022/01/10 00:46:28;;;;;;;;;33.40;30.00;;;;;10.03;62.74;100544.25;2086079;28;45481;-73
2022/01/10 00:47:29;;;;;;;;;35.50;30.75;;;;;10.05;62.62;100551.34;2077341;28;45580;-73
2022/01/10 00:48:30;;;;;;;;;31.50;29.25;;;;;10.05;63.02;100548.69;2081095;28;47220;-73
2022/01/10 00:49:31;;;;;;;;;37.75;32.75;;;;;10.06;63.01;100546.00;2077674;28;45580;-73
2022/01/10 00:50:33;;;;;;;;;32.80;28.40;;;;;10.07;62.90;100547.75;2086268;28;47929;-73
2022/01/10 00:51:34;;;;;;;;;30.60;30.00;;;;;10.07;62.72;100550.41;2085980;28;45619;-74
2022/01/10 00:52:35;;;;;;;;;32.25;29.75;;;;;10.05;62.64;100546.91;2085942;28;46740;-73
2022/01/10 00:53:36;;;;;;;;;30.00;28.25;;;;;10.07;62.79;100552.19;2094622;28;45552;-74
2022/01/10 00:54:38;;;;;;;;;31.20;30.20;;;;;10.08;62.81;100549.47;2099181;27;45518;-73
2022/01/10 00:55:39;;;;;;;;;30.80;30.80;;;;;10.08;62.88;100546.84;2095611;27;45516;-74
2022/01/10 00:56:39;;;;;;;;;29.20;29.20;;;;;10.09;62.79;100558.31;2095215;28;46308;-72
2022/01/10 00:57:40;;;;;;;;;29.25;28.75;;;;;10.10;62.78;100544.16;2088054;28;46732;-72
2022/01/10 00:58:41;;;;;;;;;35.25;32.00;;;;;10.09;62.92;100545.06;2077631;28;47772;-73
2022/01/10 00:59:42;;;;;;;;;30.75;30.00;;;;;10.11;62.96;100559.13;2085513;28;46130;-73
2022/01/10 01:00:42;;;;;;;;;30.75;30.50;;;;;10.11;62.94;100556.50;2095401;28;46228;-73
2022/01/10 01:01:43;;;;;;;;;29.50;29.00;;;;;10.10;63.02;100552.97;2094908;28;48132;-74
2022/01/10 01:02:44;;;;;;;;;28.50;28.50;;;;;10.09;62.69;100553.88;2085327;28;47208;-73
2022/01/10 01:03:46;;;;;;;;;35.00;32.00;;;;;10.11;63.01;100549.41;2085948;28;45524;-73
2022/01/10 01:04:47;;;;;;;;;32.80;31.60;;;;;10.11;62.92;100554.72;2094840;28;46043;-73
2022/01/10 01:05:47;;;;;;;;;34.50;32.00;;;;;10.12;63.03;100560.88;2094844;28;46082;-73
2022/01/10 01:06:48;;;;;;;;;29.75;27.25;;;;;10.13;63.00;100562.63;2095425;28;45882;-73
2022/01/10 01:07:49;;;;;;;;;30.50;29.00;;;;;10.13;63.00;100554.66;2085560;28;45448;-73
2022/01/10 01:08:50;;;;;;;;;37.50;32.25;;;;;10.13;62.76;100558.19;2077500;28;46045;-73
2022/01/10 01:10:02;;;;;;;;;33.50;32.00;;;;;10.13;63.10;100562.63;2085684;28;47426;-73
2022/01/10 01:11:28;;;;;;;;;35.80;33.80;;;;;10.13;62.95;100557.31;2083925;28;47231;-73
2022/01/10 01:12:43;;;;;;;;;32.20;32.20;;;;;10.13;62.80;100552.03;2086632;27;47266;-74
2022/01/10 01:17:12;;;;;;;;;37.00;34.60;;;;;10.14;62.84;100582.94;2097313;27;45519;-72
2022/01/10 01:18:20;;;;;;;;;36.80;34.00;;;;;10.12;62.91;100580.31;2101434;27;46153;-73
2022/01/10 01:24:11;;;;;;;;;38.40;35.00;;;;;10.13;63.11;100599.75;2102145;27;46208;-72
2022/01/10 01:25:12;;;;;;;;;40.00;35.25;;;;;10.12;63.02;100600.66;2103054;27;46583;-72
2022/01/10 01:26:14;;;;;;;;;42.60;36.60;;;;;10.12;62.92;100608.63;2103388;27;47232;-74
2022/01/10 01:27:14;;;;;;;;;41.60;36.80;;;;;10.11;62.99;100604.22;2094021;27;46901;-73
2022/01/10 01:28:15;;;;;;;;;39.75;36.00;;;;;10.10;63.01;100606.00;2094484;28;45430;-72
2022/01/10 01:29:19;;;;;;;;;36.50;34.25;;;;;10.11;63.05;100606.88;2102733;27;47557;-72
2022/01/10 01:30:20;;;;;;;;;39.80;36.20;;;;;10.10;62.95;100608.66;2103049;27;45423;-73
2022/01/10 01:31:21;;;;;;;;;36.00;34.25;;;;;10.11;63.18;100615.69;2103145;27;45525;-72
2022/01/10 01:32:23;;;;;;;;;35.25;34.00;;;;;10.11;62.87;100610.41;2103265;27;45555;-72
2022/01/10 01:33:24;;;;;;;;;38.00;34.60;;;;;10.12;63.06;100620.09;2093414;27;48234;-72
2022/01/10 01:34:26;;;;;;;;;40.80;35.60;;;;;10.12;63.06;100614.78;2086197;28;46447;-74
2022/01/10 01:35:27;;;;;;;;;37.20;34.80;;;;;10.12;63.00;100617.44;2093707;28;48733;-73
2022/01/10 01:36:30;;;;;;;;;43.40;37.00;;;;;10.12;63.01;100621.88;2085955;28;47830;-72
2022/01/10 01:37:31;;;;;;;;;39.40;35.80;;;;;10.13;63.02;100628.91;2093486;27;48344;-73
2022/01/10 01:38:33;;;;;;;;;40.00;36.00;;;;;10.13;63.01;100626.25;2102525;27;46175;-73
2022/01/10 01:39:35;;;;;;;;;37.40;34.00;;;;;10.12;62.97;100628.03;2102300;27;46206;-73
2022/01/10 01:40:42;;;;;;;;;35.60;34.00;;;;;10.12;63.16;100628.03;2092506;28;48141;-73
2022/01/10 01:41:43;;;;;;;;;38.20;34.20;;;;;10.12;62.80;100628.03;2085999;28;46690;-73
2022/01/10 01:42:44;;;;;;;;;40.00;36.80;;;;;10.12;63.09;100636.00;2094271;27;45653;-73
2022/01/10 01:43:47;;;;;;;;;47.25;38.25;;;;;10.13;63.21;100634.22;2102081;27;48210;-72
2022/01/10 01:44:48;;;;;;;;;41.80;37.20;;;;;10.12;63.16;100635.13;2095265;27;47228;-73
2022/01/10 01:45:49;;;;;;;;;39.80;36.20;;;;;10.13;62.89;100639.53;2095186;27;48355;-72
2022/01/10 01:46:54;;;;;;;;;37.80;35.40;;;;;10.12;63.02;100633.34;2095978;27;46740;-72
2022/01/10 01:47:55;;;;;;;;;43.40;37.20;;;;;10.11;63.08;100631.59;2094896;27;46481;-73
2022/01/10 01:48:56;;;;;;;;;40.80;36.80;;;;;10.11;62.96;100633.38;2095673;27;46646;-73
2022/01/10 01:49:58;;;;;;;;;44.00;38.00;;;;;10.10;62.88;100631.63;2103809;27;46484;-74
2022/01/10 01:50:59;;;;;;;;;38.80;35.00;;;;;10.11;63.19;100638.69;2094819;27;45738;-73
2022/01/10 01:52:00;;;;;;;;;38.00;35.20;;;;;10.12;62.85;100637.78;2095810;27;45601;-73
2022/01/10 01:53:02;;;;;;;;;45.25;38.50;;;;;10.10;62.97;100640.47;2103609;27;45508;-73
2022/01/10 01:54:04;;;;;;;;;36.20;33.40;;;;;10.10;63.04;100642.25;2095276;28;46859;-73
2022/01/10 01:55:05;;;;;;;;;37.20;34.20;;;;;10.10;62.97;100651.06;2095857;27;46073;-73
2022/01/10 01:56:09;;;;;;;;;35.60;34.00;;;;;10.09;63.16;100648.47;2095659;27;47370;-72
2022/01/10 01:57:10;;;;;;;;;40.40;35.00;;;;;10.10;63.09;100653.72;2104485;27;46836;-73
2022/01/10 01:58:10;;;;;;;;;39.50;36.50;;;;;10.10;63.12;100658.16;2103702;27;46454;-73
2022/01/10 01:59:12;;;;;;;;;44.75;36.25;;;;;10.10;63.02;100653.72;2104394;27;46350;-73
2022/01/10 02:00:13;;;;;;;;;38.20;35.00;;;;;10.10;63.16;100652.84;2104470;27;47597;-73
2022/01/10 02:01:16;;;;;;;;;42.00;36.00;;;;;10.08;63.15;100650.25;2104148;27;46556;-73
2022/01/10 02:02:17;;;;;;;;;46.80;38.00;;;;;10.09;63.08;100659.06;2104547;27;45928;-73
2022/01/10 02:03:18;;;;;;;;;28.00;26.80;;;;;10.08;63.03;100654.66;2103812;27;46771;-73
2022/01/10 02:04:19;;;;;;;;;42.40;38.20;;;;;10.08;63.28;100659.97;2104323;27;47064;-73
2022/01/10 02:05:21;;;;;;;;;47.00;40.25;;;;;10.06;63.13;100649.41;2103815;27;45864;-73
2022/01/10 02:06:22;;;;;;;;;38.60;35.60;;;;;10.07;62.82;100652.94;2104142;27;47913;-72
2022/01/10 02:07:23;;;;;;;;;45.00;38.00;;;;;10.06;63.35;100657.34;2094520;27;46093;-73
2022/01/10 02:08:23;;;;;;;;;44.25;37.00;;;;;10.06;63.15;100660.00;2086901;28;45559;-72
2022/01/10 02:09:24;;;;;;;;;42.50;38.00;;;;;10.05;63.25;100655.63;2094780;27;46570;-73
2022/01/10 02:10:25;;;;;;;;;48.00;39.00;;;;;10.05;63.27;100654.75;2104567;27;46216;-73
2022/01/10 02:11:25;;;;;;;;;34.75;32.50;;;;;10.05;63.22;100660.03;2104624;27;45997;-72
2022/01/10 02:12:26;;;;;;;;;38.50;33.75;;;;;10.03;63.21;100660.91;2103935;27;46495;-73
2022/01/10 02:13:26;;;;;;;;;40.00;35.75;;;;;10.02;63.28;100658.31;2093025;27;47372;-74
2022/01/10 02:14:27;;;;;;;;;39.25;36.00;;;;;10.02;63.14;100663.59;2094546;27;45541;-73
2022/01/10 02:15:35;;;;;;;;;40.00;37.00;;;;;10.02;63.20;100663.59;2104140;27;45572;-73
2022/01/10 02:16:42;;;;;;;;;34.00;32.80;;;;;10.00;63.22;100658.34;2102633;27;48232;-73
2022/01/10 02:17:48;;;;;;;;;42.40;37.20;;;;;10.01;63.11;100662.72;2093635;27;47050;-73
2022/01/10 02:18:49;;;;;;;;;49.40;40.40;;;;;10.02;63.31;100663.59;2095794;27;46586;-73
2022/01/10 02:19:57;;;;;;;;;41.50;38.25;;;;;10.00;63.30;100663.63;2095478;28;45771;-74
2022/01/10 02:21:03;;;;;;;;;34.40;32.60;;;;;10.01;63.31;100664.50;2088166;28;46166;-73
2022/01/10 02:22:04;;;;;;;;;34.80;30.20;;;;;10.00;63.26;100666.28;2096467;27;45615;-72
2022/01/10 02:23:05;;;;;;;;;39.25;35.00;;;;;10.00;63.04;100671.59;2103585;27;46654;-73
2022/01/10 02:24:06;;;;;;;;;37.25;34.00;;;;;10.00;63.31;100666.28;2095433;27;46089;-73
2022/01/10 02:25:07;;;;;;;;;37.50;34.75;;;;;10.00;63.11;100666.28;2095009;28;48145;-73
2022/01/10 02:26:08;;;;;;;;;40.60;35.40;;;;;10.00;63.34;100670.72;2095082;28;46307;-73
2022/01/10 02:27:08;;;;;;;;;44.00;37.50;;;;;10.00;63.27;100662.75;2086343;28;47945;-73
2022/01/10 02:28:10;;;;;;;;;40.25;36.75;;;;;10.00;63.34;100670.72;2086835;28;46040;-73
2022/01/10 02:29:11;;;;;;;;;46.20;38.40;;;;;9.98;63.35;100662.81;2094795;28;46695;-72
2022/01/10 02:30:11;;;;;;;;;46.00;36.25;;;;;9.99;63.23;100675.16;2086966;28;45965;-72
2022/01/10 02:31:13;;;;;;;;;39.50;36.50;;;;;9.98;63.43;100667.22;2094870;27;46501;-72
2022/01/10 02:32:15;;;;;;;;;45.40;37.80;;;;;9.98;63.37;100665.44;2095390;27;47909;-73
2022/01/10 02:33:16;;;;;;;;;47.20;38.80;;;;;9.98;63.16;100672.53;2094485;27;47320;-73
2022/01/10 02:34:19;;;;;;;;;45.50;39.25;;;;;9.97;63.33;100671.66;2104723;27;45991;-73
2022/01/10 02:35:27;;;;;;;;;44.20;38.00;;;;;9.97;63.30;100676.97;2104503;27;45500;-73
2022/01/10 02:36:28;;;;;;;;;32.20;29.00;;;;;9.97;63.34;100670.78;2104087;27;45764;-72
2022/01/10 02:37:33;;;;;;;;;45.00;38.75;;;;;9.96;63.40;100669.91;2103184;27;46111;-73
2022/01/10 02:38:34;;;;;;;;;51.60;41.60;;;;;9.95;63.70;100664.66;2095579;27;46231;-73
2022/01/10 02:39:36;;;;;;;;;43.25;36.50;;;;;9.96;63.56;100671.69;2086623;28;45690;-73
2022/01/10 02:40:37;;;;;;;;;46.20;37.20;;;;;9.95;63.71;100673.47;2087263;28;45664;-72
2022/01/10 02:41:40;;;;;;;;;43.50;38.25;;;;;9.96;63.22;100669.03;2095784;27;46048;-73
2022/01/10 02:42:41;;;;;;;;;39.80;36.60;;;;;9.95;63.47;100664.66;2095634;28;46291;-73
2022/01/10 02:43:41;;;;;;;;;39.00;35.50;;;;;9.96;63.37;100674.34;2095162;28;46459;-73
2022/01/10 02:44:42;;;;;;;;;37.75;35.00;;;;;9.94;63.47;100671.72;2095194;27;47049;-73
2022/01/10 02:45:43;;;;;;;;;37.50;35.00;;;;;9.94;63.48;100670.84;2095219;28;45436;-73
2022/01/10 02:46:45;;;;;;;;;42.00;37.75;;;;;9.93;63.41;100669.13;2104273;27;45991;-73
2022/01/10 02:47:47;;;;;;;;;47.20;39.80;;;;;9.93;63.62;100669.97;2103381;27;45983;-73
2022/01/10 02:48:49;;;;;;;;;46.80;40.80;;;;;9.93;63.48;100677.94;2104611;27;47472;-72
2022/01/10 02:49:49;;;;;;;;;44.80;39.20;;;;;9.91;63.63;100679.75;2104119;27;46290;-74
2022/01/10 02:50:50;;;;;;;;;45.00;39.00;;;;;9.91;63.57;100677.09;2095410;28;48320;-72
2022/01/10 02:51:53;;;;;;;;;45.60;38.40;;;;;9.90;63.80;100683.28;2095159;27;47790;-72
2022/01/10 02:52:53;;;;;;;;;46.80;38.00;;;;;9.90;63.43;100677.09;2095136;27;46549;-73
2022/01/10 02:53:54;;;;;;;;;43.50;38.75;;;;;9.89;63.62;100686.84;2095073;28;47722;-73
2022/01/10 02:54:57;;;;;;;;;42.00;38.00;;;;;9.88;63.53;100687.72;2094772;28;46088;-73
2022/01/10 02:55:57;;;;;;;;;48.40;40.60;;;;;9.89;63.70;100691.25;2095307;27;45574;-73
2022/01/10 02:56:58;;;;;;;;;47.00;39.75;;;;;9.88;63.60;100689.50;2104705;27;48140;-73
2022/01/10 02:57:59;;;;;;;;;47.25;39.75;;;;;9.89;63.76;100696.56;2094839;27;46842;-73
2022/01/10 02:58:59;;;;;;;;;44.25;38.00;;;;;9.88;63.72;100700.13;2086794;28;47916;-73
2022/01/10 03:00:14;;;;;;;;;45.75;35.75;;;;;9.89;63.68;100702.72;2095046;28;48092;-72
2022/01/10 03:01:14;;;;;;;;;42.40;37.80;;;;;9.88;63.57;100708.94;2094932;27;48375;-72
2022/01/10 03:02:26;;;;;;;;;41.25;35.50;;;;;9.87;63.69;100704.53;2095160;27;45992;-73
2022/01/10 03:03:29;;;;;;;;;43.80;37.80;;;;;9.87;63.69;100714.28;2094323;28;46519;-72
2022/01/10 03:04:30;;;;;;;;;43.40;38.40;;;;;9.87;63.58;100711.63;2078691;28;47309;-73
2022/01/10 03:05:30;;;;;;;;;49.25;37.75;;;;;9.86;63.63;100712.53;2087782;28;46163;-73
2022/01/10 03:06:32;;;;;;;;;49.25;41.75;;;;;9.87;63.46;100716.94;2095250;28;48309;-74
2022/01/10 03:07:33;;;;;;;;;44.80;38.00;;;;;9.87;63.96;100724.88;2094135;27;45515;-73
2022/01/10 03:08:34;;;;;;;;;49.25;38.75;;;;;9.86;63.56;100717.84;2103601;27;45460;-72
2022/01/10 03:09:35;;;;;;;;;50.60;42.20;;;;;9.85;63.60;100718.75;2103446;27;45498;-74
2022/01/10 03:10:36;;;;;;;;;50.40;42.20;;;;;9.84;63.26;100717.00;2103457;27;47245;-73
2022/01/10 03:11:41;;;;;;;;;46.75;41.00;;;;;9.83;63.42;100718.78;2104128;27;45502;-74
2022/01/10 03:12:42;;;;;;;;;52.00;43.40;;;;;9.82;63.45;100719.69;2094809;27;45883;-71
2022/01/10 03:13:43;;;;;;;;;50.20;39.20;;;;;9.81;63.62;100722.34;2094975;27;48240;-73
2022/01/10 03:14:44;;;;;;;;;49.50;42.75;;;;;9.80;63.48;100729.44;2103853;27;48248;-74
2022/01/10 03:15:45;;;;;;;;;51.60;41.00;;;;;9.79;63.49;100729.47;2104375;27;45529;-73
2022/01/10 03:16:45;;;;;;;;;50.00;40.50;;;;;9.78;63.52;100727.69;2095061;28;47013;-73
2022/01/10 03:17:46;;;;;;;;;47.25;40.25;;;;;9.76;63.40;100719.78;2085683;28;46847;-72
2022/01/10 03:18:47;;;;;;;;;49.50;41.00;;;;;9.75;63.51;100728.63;2086876;28;45597;-72
2022/01/10 03:19:47;;;;;;;;;49.00;40.75;;;;;9.73;63.59;100719.84;2095000;28;47242;-73
2022/01/10 03:20:48;;;;;;;;;48.75;41.50;;;;;9.71;63.46;100725.16;2103569;27;47009;-72
2022/01/10 03:21:48;;;;;;;;;48.25;40.75;;;;;9.70;63.51;100722.53;2103239;27;45579;-72
2022/01/10 03:22:50;;;;;;;;;48.75;41.50;;;;;9.69;63.35;100726.97;2094656;27;47165;-72
2022/01/10 03:23:52;;;;;;;;;46.80;41.00;;;;;9.69;63.33;100729.63;2095273;27;45911;-72
2022/01/10 03:24:56;;;;;;;;;51.40;42.60;;;;;9.68;63.37;100737.59;2095107;28;48162;-73
2022/01/10 03:25:56;;;;;;;;;50.20;42.20;;;;;9.67;63.71;100736.72;2094708;27;46325;-72
2022/01/10 03:26:57;;;;;;;;;50.75;41.75;;;;;9.68;63.75;100740.25;2086642;28;45508;-73
2022/01/10 03:27:58;;;;;;;;;48.40;40.80;;;;;9.67;63.58;100741.16;2094793;27;46225;-72
2022/01/10 03:28:59;;;;;;;;;49.25;41.50;;;;;9.67;63.60;100741.16;2094841;27;45718;-73
2022/01/10 03:30:00;;;;;;;;;46.25;39.75;;;;;9.66;63.55;100744.72;2103267;27;46202;-73
2022/01/10 03:31:01;;;;;;;;;42.25;38.25;;;;;9.66;63.54;100742.94;2102794;27;45632;-72
2022/01/10 03:32:02;;;;;;;;;53.25;43.00;;;;;9.66;63.56;100740.28;2103776;27;45485;-74
2022/01/10 03:33:04;;;;;;;;;51.60;44.60;;;;;9.64;63.33;100736.75;2094414;27;45506;-73
2022/01/10 03:34:10;;;;;;;;;50.60;42.60;;;;;9.64;63.25;100735.88;2094420;27;47920;-72
2022/01/10 03:35:11;;;;;;;;;47.60;40.40;;;;;9.62;63.77;100741.22;2094714;27;46396;-72
2022/01/10 03:36:12;;;;;;;;;50.50;42.50;;;;;9.62;63.58;100749.16;2094843;28;47132;-73
2022/01/10 03:37:13;;;;;;;;;52.60;43.80;;;;;9.63;63.61;100748.25;2104092;27;46633;-72
2022/01/10 03:38:14;;;;;;;;;46.50;39.50;;;;;9.61;63.51;100755.38;2094353;28;45824;-73
2022/01/10 03:39:14;;;;;;;;;52.75;42.75;;;;;9.61;63.49;100758.03;2094498;27;46323;-73
2022/01/10 03:40:15;;;;;;;;;51.00;42.25;;;;;9.61;63.52;100754.50;2095123;27;46511;-73
2022/01/10 03:41:16;;;;;;;;;43.50;36.75;;;;;9.61;63.63;100760.66;2094839;27;47680;-73
2022/01/10 03:42:17;;;;;;;;;51.00;42.00;;;;;9.60;63.78;100761.56;2094373;28;45578;-73
2022/01/10 03:43:20;;;;;;;;;50.50;42.25;;;;;9.59;63.66;100754.53;2093971;27;45463;-73
2022/01/10 03:44:21;;;;;;;;;46.00;40.40;;;;;9.59;63.60;100757.19;2103797;27;45460;-73
2022/01/10 03:45:22;;;;;;;;;49.00;42.00;;;;;9.58;63.36;100752.78;2094654;28;47461;-74
2022/01/10 03:46:22;;;;;;;;;52.00;43.25;;;;;9.59;63.56;100757.19;2094776;27;45459;-73
2022/01/10 03:47:23;;;;;;;;;50.75;43.25;;;;;9.58;63.65;100757.22;2095096;28;47790;-73
2022/01/10 03:48:24;;;;;;;;;51.40;43.80;;;;;9.58;63.75;100754.56;2093988;27;47397;-72
2022/01/10 03:49:25;;;;;;;;;51.00;43.50;;;;;9.59;63.66;100758.94;2094754;27;48583;-72
2022/01/10 03:50:26;;;;;;;;;49.25;42.00;;;;;9.59;63.71;100758.94;2094787;28;47549;-72
2022/01/10 03:51:27;;;;;;;;;48.20;41.60;;;;;9.59;63.74;100766.91;2103758;27;46419;-74
2022/01/10 03:52:29;;;;;;;;;51.40;42.20;;;;;9.57;63.49;100766.94;2102895;27;45516;-72
2022/01/10 03:53:30;;;;;;;;;52.80;45.40;;;;;9.58;63.66;100762.50;2103139;27;47203;-72
2022/01/10 03:54:31;;;;;;;;;45.75;39.00;;;;;9.57;63.68;100764.28;2103293;27;45490;-74
2022/01/10 03:55:31;;;;;;;;;48.60;41.40;;;;;9.56;63.58;100764.31;2102709;27;45839;-73
2022/01/10 03:56:32;;;;;;;;;54.00;44.25;;;;;9.57;63.58;100769.59;2103255;27;47863;-73
2022/01/10 03:57:33;;;;;;;;;49.00;42.00;;;;;9.56;63.69;100772.25;2103174;27;46200;-73
2022/01/10 03:58:33;;;;;;;;;49.50;42.75;;;;;9.54;63.60;100766.13;2094550;28;45650;-73
2022/01/10 03:59:34;;;;;;;;;46.50;40.25;;;;;9.54;63.37;100774.06;2094270;27;45608;-74
2022/01/10 04:00:35;;;;;;;;;53.50;42.50;;;;;9.53;63.77;100769.63;2103920;27;46459;-74
2022/01/10 04:01:38;;;;;;;;;51.75;43.00;;;;;9.51;63.61;100772.31;2086238;28;48194;-74
2022/01/10 04:02:42;;;;;;;;;52.00;44.00;;;;;9.50;63.71;100770.56;2078765;28;45562;-73
2022/01/10 04:03:43;;;;;;;;;51.60;43.60;;;;;9.49;63.33;100773.25;2094989;27;46834;-73
2022/01/10 04:04:43;;;;;;;;;3.00;1.50;;;;;9.49;63.47;100781.19;2103862;27;45513;-73
2022/01/10 04:05:44;;;;;;;;;52.25;44.25;;;;;9.47;63.30;100783.88;2094568;28;45534;-74
2022/01/10 04:06:45;;;;;;;;;51.25;43.00;;;;;9.46;63.27;100787.41;2093899;28;47059;-73
2022/01/10 04:07:46;;;;;;;;;53.50;42.75;;;;;9.45;63.57;100785.69;2094065;27;47482;-73
2022/01/10 04:08:46;;;;;;;;;52.00;43.75;;;;;9.44;63.51;100786.56;2103814;27;46989;-73
2022/01/10 04:09:47;;;;;;;;;50.25;42.50;;;;;9.43;63.45;100788.34;2103748;27;47383;-73
2022/01/10 04:10:48;;;;;;;;;53.25;42.50;;;;;9.43;63.58;100788.34;2094730;27;47077;-73
2022/01/10 04:11:49;;;;;;;;;48.75;42.00;;;;;9.42;63.55;100791.91;2094113;28;45517;-73
2022/01/10 04:12:50;;;;;;;;;51.80;43.60;;;;;9.43;63.45;100792.78;2092951;27;48369;-72
2022/01/10 04:13:50;;;;;;;;;52.75;44.75;;;;;9.41;63.60;100792.81;2094214;27;46469;-73
2022/01/10 04:14:51;;;;;;;;;53.25;45.00;;;;;9.41;63.68;100794.56;2090901;27;46730;-72
2022/01/10 04:15:52;;;;;;;;;53.25;45.50;;;;;9.39;63.53;100789.28;2094252;27;46550;-73
2022/01/10 04:16:53;;;;;;;;;53.75;45.25;;;;;9.39;63.44;100791.91;2103284;27;45826;-73
2022/01/10 04:17:56;;;;;;;;;56.20;45.80;;;;;9.37;63.59;100791.06;2093920;27;45431;-74
2022/01/10 04:18:57;;;;;;;;;57.00;46.80;;;;;9.35;63.57;100790.22;2086697;28;45769;-74
2022/01/10 04:19:58;;;;;;;;;57.00;46.00;;;;;9.35;63.64;100797.31;2094237;28;46992;-72
2022/01/10 04:20:59;;;;;;;;;55.00;47.00;;;;;9.35;63.31;100802.59;2103500;27;47990;-72
2022/01/10 04:21:59;;;;;;;;;55.80;46.60;;;;;9.32;63.37;100805.31;2103109;27;46621;-72
2022/01/10 04:23:00;;;;;;;;;54.25;44.25;;;;;9.32;63.46;100803.53;2102986;27;47924;-74
2022/01/10 04:24:01;;;;;;;;;59.75;48.50;;;;;9.31;63.50;100807.06;2103560;27;47480;-73
2022/01/10 04:25:01;;;;;;;;;50.50;41.75;;;;;9.29;63.53;100805.34;2103453;27;46697;-74
2022/01/10 04:26:02;;;;;;;;;57.50;47.50;;;;;9.30;63.43;100812.41;2103198;27;46215;-74
2022/01/10 04:27:03;;;;;;;;;60.50;49.00;;;;;9.29;63.41;100814.19;2102637;27;46074;-73
2022/01/10 04:28:04;;;;;;;;;56.25;46.75;;;;;9.28;63.61;100820.38;2102604;27;48108;-73
2022/01/10 04:29:04;;;;;;;;;56.75;48.00;;;;;9.27;63.41;100815.94;2103485;27;45893;-73
2022/01/10 04:30:05;;;;;;;;;57.00;45.25;;;;;9.27;63.75;100813.28;2103400;27;45420;-73
2022/01/10 04:31:06;;;;;;;;;56.25;47.00;;;;;9.26;63.56;100814.19;2103746;27;45845;-72
2022/01/10 04:32:08;;;;;;;;;56.75;47.00;;;;;9.26;63.55;100811.53;2094375;27;45335;-74
2022/01/10 04:33:10;;;;;;;;;58.00;47.00;;;;;9.27;63.51;100825.66;2094345;27;47780;-74
2022/01/10 04:34:12;;;;;;;;;55.20;46.20;;;;;9.26;63.28;100824.78;2095195;27;46716;-73
2022/01/10 04:35:12;;;;;;;;;42.80;37.80;;;;;9.25;63.67;100830.13;2086064;28;45530;-73
2022/01/10 04:36:13;;;;;;;;;57.50;47.25;;;;;9.26;63.39;100829.22;2094292;28;45942;-72
2022/01/10 04:37:14;;;;;;;;;55.50;46.50;;;;;9.25;63.49;100828.34;2085585;28;45942;-72
2022/01/10 04:38:15;;;;;;;;;56.50;46.50;;;;;9.24;63.06;100828.38;2085451;28;48080;-74
2022/01/10 04:39:15;;;;;;;;;60.60;49.20;;;;;9.24;63.31;100829.25;2094254;27;47248;-73
2022/01/10 04:40:17;;;;;;;;;62.50;49.00;;;;;9.23;63.41;100821.31;2103729;27;45665;-72
2022/01/10 04:41:17;;;;;;;;;61.20;50.00;;;;;9.24;63.63;100831.00;2103376;27;47659;-72
2022/01/10 04:42:18;;;;;;;;;57.25;47.50;;;;;9.23;63.50;100834.56;2094594;28;46392;-72
2022/01/10 04:43:18;;;;;;;;;60.50;49.75;;;;;9.21;63.30;100837.22;2093762;27;47331;-72
2022/01/10 04:44:19;;;;;;;;;54.75;45.75;;;;;9.22;63.44;100841.63;2093822;28;45944;-73
2022/01/10 04:45:20;;;;;;;;;63.00;50.75;;;;;9.20;63.55;100838.13;2085573;28;45868;-72
2022/01/10 04:46:20;;;;;;;;;58.00;47.25;;;;;9.20;63.47;100846.06;2085949;28;45415;-73
2022/01/10 04:47:21;;;;;;;;;58.75;48.50;;;;;9.20;63.36;100847.84;2094535;28;45727;-72
2022/01/10 04:48:22;;;;;;;;;61.25;50.25;;;;;9.20;63.35;100855.78;2102814;27;46451;-72
2022/01/10 04:49:26;;;;;;;;;61.50;49.50;;;;;9.19;63.40;100854.03;2102471;27;47299;-73
2022/01/10 04:51:46;;;;;;;;;57.00;47.00;;;;;9.16;63.29;100859.38;2102997;27;47484;-73